Time,TemperatureF,DewpointF,PressureIn,WindDirection,WindDirectionDegrees,WindSpeedMPH,WindSpeedGustMPH,Humidity,HourlyPrecipIn,Conditions,Clouds,dailyrainin,SoftwareType,DateUTC
2013-09-24 00:04:00,75.0,74.0,29.94,SSE,164,0.0,0.0,96,0.01,,,-99.99,,2013-09-24 04:04:00,
2013-09-24 00:14:00,75.0,74.0,29.94,SSE,164,0.0,0.0,96,0.01,,,-99.99,,2013-09-24 04:14:00,
2013-09-24 00:24:00,75.0,74.0,29.94,SSE,163,0.0,0.0,96,0.00,,,-99.99,,2013-09-24 04:24:00,
2013-09-24 00:34:00,75.0,74.0,29.94,SSE,163,0.0,0.0,96,0.00,,,-99.99,,2013-09-24 04:34:00,
2013-09-24 00:54:00,75.0,74.0,29.94,SSE,165,0.0,0.0,96,0.00,,,-99.99,,2013-09-24 04:54:00,
2013-09-24 01:03:00,75.0,74.0,29.94,SSE,165,0.0,0.0,96,0.00,,,-99.99,,2013-09-24 05:03:00,
2013-09-24 01:23:00,75.0,74.0,29.92,SSE,167,0.0,0.0,97,0.00,,,-99.99,,2013-09-24 05:23:00,
2013-09-24 01:34:00,75.0,74.0,29.92,SSE,167,0.0,0.0,97,0.00,,,-99.99,,2013-09-24 05:34:00,
2013-09-24 01:53:00,75.0,74.0,29.90,SSE,168,0.0,0.0,96,0.02,,,-99.99,,2013-09-24 05:53:00,
2013-09-24 02:02:00,75.0,74.0,29.90,SSE,168,0.0,0.0,96,0.02,,,-99.99,,2013-09-24 06:02:00,
2013-09-24 02:22:00,75.0,74.0,29.90,South,182,0.0,0.0,96,0.03,,,-99.99,,2013-09-24 06:22:00,
2013-09-24 02:32:00,75.0,74.0,29.90,South,182,0.0,0.0,96,0.03,,,-99.99,,2013-09-24 06:32:00,
2013-09-24 02:52:00,75.0,74.0,29.90,South,181,0.0,0.0,96,0.03,,,-99.99,,2013-09-24 06:52:00,
2013-09-24 03:03:00,75.0,74.0,29.90,South,181,0.0,0.0,96,0.03,,,-99.99,,2013-09-24 07:03:00,
2013-09-24 03:22:00,74.0,73.0,29.89,South,181,0.0,0.0,96,0.01,,,-99.99,,2013-09-24 07:22:00,
2013-09-24 03:32:00,74.0,73.0,29.89,South,181,0.0,0.0,96,0.01,,,-99.99,,2013-09-24 07:32:00,
2013-09-24 03:52:00,74.0,73.0,29.89,South,181,0.0,0.0,96,0.01,,,-99.99,,2013-09-24 07:52:00,
2013-09-24 04:02:00,74.0,73.0,29.89,South,181,0.0,0.0,96,0.01,,,-99.99,,2013-09-24 08:02:00,
2013-09-24 09:22:00,75.0,74.0,29.92,South,181,0.0,-999.0,96,-99.99,,,-99.99,,2013-09-24 13:22:00,
2013-09-24 09:32:00,75.0,74.0,29.92,South,181,0.0,-999.0,96,-99.99,,,-99.99,,2013-09-24 13:32:00,
2013-09-24 09:52:00,75.0,73.0,29.92,South,181,0.0,-999.0,95,-99.99,,,-99.99,,2013-09-24 13:52:00,
2013-09-24 10:02:00,75.0,73.0,29.92,South,181,0.0,-999.0,95,-99.99,,,-99.99,,2013-09-24 14:02:00,
2013-09-24 10:21:00,75.0,73.0,29.92,South,181,0.0,-999.0,95,-99.99,,,-99.99,,2013-09-24 14:21:00,
2013-09-24 10:32:00,75.0,73.0,29.92,South,181,0.0,-999.0,95,-99.99,,,-99.99,,2013-09-24 14:32:00,
2013-09-24 10:52:00,75.0,73.0,29.92,South,184,0.0,-999.0,95,-99.99,,,-99.99,,2013-09-24 14:52:00,
2013-09-24 11:01:00,75.0,73.0,29.92,South,184,0.0,-999.0,95,-99.99,,,-99.99,,2013-09-24 15:01:00,
2013-09-24 11:22:00,75.0,73.0,29.91,SSW,199,0.0,-999.0,95,-99.99,,,-99.99,,2013-09-24 15:22:00,
2013-09-24 11:33:00,75.0,73.0,29.91,SSW,199,0.0,-999.0,95,-99.99,,,-99.99,,2013-09-24 15:33:00,
2013-09-24 11:54:00,76.0,74.0,29.90,SW,215,0.0,-999.0,95,-99.99,,,-99.99,,2013-09-24 15:54:00,
2013-09-24 12:03:00,76.0,74.0,29.90,SW,215,0.0,-999.0,95,-99.99,,,-99.99,,2013-09-24 16:03:00,
2013-09-24 12:23:00,76.0,74.0,29.89,SW,221,0.0,-999.0,95,-99.99,,,-99.99,,2013-09-24 16:23:00,
2013-09-24 12:33:00,76.0,74.0,29.89,SW,221,0.0,-999.0,95,-99.99,,,-99.99,,2013-09-24 16:33:00,
2013-09-24 12:53:00,77.0,75.0,29.89,SW,220,0.0,-999.0,94,-99.99,,,-99.99,,2013-09-24 16:53:00,
2013-09-24 13:02:00,77.0,75.0,29.89,SW,220,0.0,-999.0,94,-99.99,,,-99.99,,2013-09-24 17:02:00,
2013-09-24 13:23:00,77.0,74.0,29.90,West,262,0.0,-999.0,92,-99.99,,,-99.99,,2013-09-24 17:23:00,
2013-09-24 13:33:00,77.0,74.0,29.90,West,262,0.0,-999.0,92,-99.99,,,-99.99,,2013-09-24 17:33:00,
2013-09-24 13:54:00,79.0,75.0,29.89,SW,235,1.0,-999.0,88,-99.99,,,-99.99,,2013-09-24 17:54:00,
2013-09-24 14:03:00,79.0,75.0,29.89,SW,235,1.0,-999.0,88,-99.99,,,-99.99,,2013-09-24 18:03:00,
2013-09-24 14:22:00,83.0,77.0,29.87,SW,232,2.0,-999.0,82,-99.99,,,-99.99,,2013-09-24 18:22:00,
2013-09-24 14:32:00,83.0,77.0,29.87,SW,232,2.0,-999.0,82,-99.99,,,-99.99,,2013-09-24 18:32:00,
2013-09-24 14:52:00,82.0,75.0,29.87,SW,221,3.0,-999.0,80,-99.99,,,-99.99,,2013-09-24 18:52:00,
2013-09-24 15:02:00,82.0,75.0,29.87,SW,221,3.0,-999.0,80,-99.99,,,-99.99,,2013-09-24 19:02:00,
2013-09-24 15:22:00,81.0,75.0,29.86,SW,233,2.0,-999.0,81,-99.99,,,-99.99,,2013-09-24 19:22:00,
2013-09-24 15:32:00,81.0,75.0,29.86,SW,233,2.0,-999.0,81,-99.99,,,-99.99,,2013-09-24 19:32:00,
2013-09-24 15:52:00,81.0,75.0,29.85,SW,229,2.0,-999.0,82,-99.99,,,-99.99,,2013-09-24 19:52:00,
2013-09-24 16:02:00,81.0,75.0,29.85,SW,229,2.0,-999.0,82,-99.99,,,-99.99,,2013-09-24 20:02:00,
2013-09-24 16:22:00,81.0,75.0,29.86,SW,227,1.0,-999.0,83,-99.99,,,-99.99,,2013-09-24 20:22:00,
2013-09-24 16:32:00,81.0,75.0,29.86,SW,227,1.0,-999.0,83,-99.99,,,-99.99,,2013-09-24 20:32:00,
2013-09-24 16:52:00,80.0,75.0,29.86,SW,225,1.0,-999.0,85,-99.99,,,-99.99,,2013-09-24 20:52:00,
2013-09-24 17:02:00,80.0,75.0,29.86,SW,225,1.0,-999.0,85,-99.99,,,-99.99,,2013-09-24 21:02:00,
2013-09-24 17:22:00,79.0,74.0,29.85,SW,223,2.0,-999.0,85,-99.99,,,-99.99,,2013-09-24 21:22:00,
2013-09-24 17:33:00,79.0,74.0,29.85,SW,223,2.0,-999.0,85,-99.99,,,-99.99,,2013-09-24 21:33:00,
2013-09-24 17:54:00,78.0,74.0,29.84,SW,231,1.0,-999.0,87,-99.99,,,-99.99,,2013-09-24 21:54:00,
2013-09-24 18:04:00,78.0,74.0,29.84,SW,231,1.0,-999.0,87,-99.99,,,-99.99,,2013-09-24 22:04:00,
2013-09-24 18:23:00,78.0,74.0,29.84,SW,227,1.0,-999.0,88,-99.99,,,-99.99,,2013-09-24 22:23:00,
2013-09-24 18:34:00,78.0,74.0,29.84,SW,227,1.0,-999.0,88,-99.99,,,-99.99,,2013-09-24 22:34:00,
2013-09-24 18:54:00,77.0,74.0,29.85,SSW,211,1.0,-999.0,89,-99.99,,,-99.99,,2013-09-24 22:54:00,
2013-09-24 19:03:00,77.0,74.0,29.85,SSW,211,1.0,-999.0,89,-99.99,,,-99.99,,2013-09-24 23:03:00,
2013-09-24 19:22:00,77.0,74.0,29.85,SW,222,0.0,-999.0,90,-99.99,,,-99.99,,2013-09-24 23:22:00,
2013-09-24 19:33:00,77.0,74.0,29.85,SW,222,0.0,-999.0,90,-99.99,,,-99.99,,2013-09-24 23:33:00,
2013-09-24 19:53:00,76.0,73.0,29.85,SW,225,0.0,-999.0,90,-99.99,,,-99.99,,2013-09-24 23:53:00,
2013-09-24 20:02:00,76.0,73.0,29.85,SW,225,0.0,-999.0,90,-99.99,,,-99.99,,2013-09-25 00:02:00,
2013-09-24 20:22:00,76.0,73.0,29.86,SW,225,0.0,-999.0,91,-99.99,,,-99.99,,2013-09-25 00:22:00,
2013-09-24 20:33:00,76.0,73.0,29.86,SW,225,0.0,-999.0,91,-99.99,,,-99.99,,2013-09-25 00:33:00,
2013-09-24 20:52:00,75.0,73.0,29.87,SW,225,0.0,-999.0,92,-99.99,,,-99.99,,2013-09-25 00:52:00,
2013-09-24 21:02:00,75.0,73.0,29.87,SW,225,0.0,-999.0,92,-99.99,,,-99.99,,2013-09-25 01:02:00,
2013-09-24 21:21:00,75.0,73.0,29.87,SW,224,0.0,-999.0,92,-99.99,,,-99.99,,2013-09-25 01:21:00,
2013-09-24 21:32:00,75.0,73.0,29.87,SW,224,0.0,-999.0,92,-99.99,,,-99.99,,2013-09-25 01:32:00,
2013-09-24 21:52:00,75.0,73.0,29.87,SW,223,0.0,-999.0,92,-99.99,,,-99.99,,2013-09-25 01:52:00,
2013-09-24 22:02:00,75.0,73.0,29.87,SW,223,0.0,-999.0,92,-99.99,,,-99.99,,2013-09-25 02:02:00,
2013-09-24 22:22:00,74.0,72.0,29.85,SW,223,0.0,-999.0,92,-99.99,,,-99.99,,2013-09-25 02:22:00,
2013-09-24 22:32:00,74.0,72.0,29.85,SW,223,0.0,-999.0,92,-99.99,,,-99.99,,2013-09-25 02:32:00,
2013-09-24 22:52:00,74.0,72.0,29.84,SW,222,0.0,-999.0,93,-99.99,,,-99.99,,2013-09-25 02:52:00,
2013-09-24 23:02:00,74.0,72.0,29.84,SW,222,0.0,-999.0,93,-99.99,,,-99.99,,2013-09-25 03:02:00,
2013-09-24 23:23:00,74.0,72.0,29.83,SW,224,0.0,-999.0,93,-99.99,,,-99.99,,2013-09-25 03:23:00,
2013-09-24 23:34:00,74.0,72.0,29.83,SW,224,0.0,-999.0,93,-99.99,,,-99.99,,2013-09-25 03:34:00,
2013-09-24 23:55:00,74.0,72.0,29.83,SW,225,0.0,-999.0,93,-99.99,,,-99.99,,2013-09-25 03:55:00,